createdAt,value
2024-03-02T00:00:41.386Z,74.44
2024-03-02T00:03:10.877Z,74.19
2024-03-02T00:05:37.899Z,74.49
2024-03-02T00:08:07.719Z,74.56
2024-03-02T00:10:57.597Z,74.38
2024-03-02T00:13:24.457Z,74.22
2024-03-02T00:15:56.465Z,74.19
2024-03-02T00:18:34.039Z,74.04
2024-03-02T00:21:01.906Z,73.84
2024-03-02T00:23:32.239Z,73.72
2024-03-02T00:26:01.484Z,73.66
2024-03-02T00:28:35.451Z,73.51
2024-03-02T00:31:10.348Z,73.24
2024-03-02T00:33:40.060Z,73.15
2024-03-02T00:36:07.993Z,73.12
2024-03-02T00:38:36.343Z,73.31
2024-03-02T00:41:09.960Z,72.64
2024-03-02T00:43:37.078Z,72.99
2024-03-02T00:46:03.957Z,73.25
2024-03-02T00:48:32.716Z,72.97
2024-03-02T00:50:59.566Z,72.47
2024-03-02T00:53:27.602Z,72.98
2024-03-02T00:55:54.433Z,72.70
2024-03-02T00:58:21.203Z,72.18
2024-03-02T01:00:48.219Z,72.54
2024-03-02T01:03:15.025Z,72.40
2024-03-02T01:05:44.743Z,71.89
2024-03-02T01:08:12.265Z,71.90
2024-03-02T01:10:39.186Z,71.54
2024-03-02T01:13:06.049Z,71.64
2024-03-02T01:15:32.966Z,71.03
2024-03-02T01:17:59.847Z,71.14
2024-03-02T01:20:26.988Z,70.99
2024-03-02T01:22:54.473Z,70.53
2024-03-02T01:25:21.555Z,70.48
2024-03-02T01:27:50.363Z,70.26
2024-03-02T01:30:17.952Z,69.58
2024-03-02T01:32:44.717Z,69.89
2024-03-02T01:35:11.488Z,69.31
2024-03-02T01:37:38.253Z,69.45
2024-03-02T01:40:10.445Z,69.48
2024-03-02T01:42:40.598Z,68.67
2024-03-02T01:45:09.217Z,68.80
2024-03-02T01:47:36.615Z,68.07
2024-03-02T01:50:03.622Z,67.77
2024-03-02T01:52:30.780Z,67.62
2024-03-02T01:54:58.232Z,67.59
2024-03-02T01:57:25.263Z,67.63
2024-03-02T01:59:52.281Z,67.01
2024-03-02T02:02:19.346Z,67.18
2024-03-02T02:04:46.127Z,67.09
2024-03-02T02:07:12.981Z,67.07
2024-03-02T02:09:39.755Z,66.97
2024-03-02T02:12:07.994Z,67.38
2024-03-02T02:14:35.017Z,67.54
2024-03-02T02:17:01.900Z,67.93
2024-03-02T02:19:28.907Z,68.02
2024-03-02T02:21:56.697Z,68.25
2024-03-02T02:24:23.436Z,67.74
2024-03-02T02:26:50.190Z,67.63
2024-03-02T02:29:16.957Z,67.49
2024-03-02T02:31:43.731Z,67.29
2024-03-02T02:34:10.649Z,67.26
2024-03-02T02:36:42.864Z,67.50
2024-03-02T02:39:14.698Z,67.42
2024-03-02T02:41:41.519Z,67.47
2024-03-02T02:44:08.330Z,67.43
2024-03-02T02:46:35.165Z,67.66
2024-03-02T02:49:02.034Z,67.67
2024-03-02T02:51:28.895Z,67.93
2024-03-02T02:53:55.685Z,68.10
2024-03-02T02:56:22.551Z,68.15
2024-03-02T02:58:49.354Z,68.52
2024-03-02T03:01:20.471Z,68.24
2024-03-02T03:03:47.396Z,68.51
2024-03-02T03:06:14.256Z,68.51
2024-03-02T03:08:41.033Z,68.51
2024-03-02T03:11:07.893Z,68.34
2024-03-02T03:13:35.814Z,68.39
2024-03-02T03:16:02.712Z,68.23
2024-03-02T03:18:30.384Z,68.68
2024-03-02T03:20:57.150Z,68.27
2024-03-02T03:23:23.888Z,68.37
2024-03-02T03:25:50.742Z,68.04
2024-03-02T03:28:17.416Z,68.23
2024-03-02T03:30:44.325Z,68.39
2024-03-02T03:33:11.126Z,67.80
2024-03-02T03:35:38.815Z,68.02
2024-03-02T03:38:05.543Z,68.02
2024-03-02T03:40:32.300Z,67.99
2024-03-02T03:42:59.492Z,68.09
2024-03-02T03:45:27.946Z,67.84
2024-03-02T03:47:56.071Z,67.38
2024-03-02T03:50:23.002Z,67.61
2024-03-02T03:52:49.771Z,67.68
2024-03-02T03:55:16.478Z,67.78
2024-03-02T03:57:43.845Z,67.65
2024-03-02T04:00:11.609Z,67.58
2024-03-02T04:02:41.921Z,67.90
2024-03-02T04:05:12.101Z,67.64
2024-03-02T04:07:41.520Z,67.63
2024-03-02T04:10:10.626Z,67.89
2024-03-02T04:12:38.054Z,67.90
2024-03-02T04:15:08.545Z,67.71
2024-03-02T04:17:36.940Z,67.82
2024-03-02T04:20:06.251Z,68.02
2024-03-02T04:22:34.779Z,68.07
2024-03-02T04:25:02.390Z,68.40
2024-03-02T04:27:29.350Z,68.34
2024-03-02T04:29:56.151Z,68.45
2024-03-02T04:32:22.982Z,68.77
2024-03-02T04:34:49.740Z,68.54
2024-03-02T04:37:16.603Z,69.06
2024-03-02T04:39:43.396Z,69.27
2024-03-02T04:42:10.236Z,69.25
2024-03-02T04:44:38.160Z,69.23
2024-03-02T04:47:05.761Z,69.56
2024-03-02T04:49:32.725Z,69.19
2024-03-02T04:51:59.697Z,68.97
2024-03-02T04:54:26.827Z,69.22
2024-03-02T04:56:53.624Z,69.05
2024-03-02T04:59:20.407Z,68.91
2024-03-02T05:01:48.680Z,68.95
2024-03-02T05:04:16.010Z,68.73
2024-03-02T05:06:42.867Z,68.94
2024-03-02T05:09:10.111Z,68.94
2024-03-02T05:11:57.441Z,69.00
2024-03-02T05:14:24.296Z,68.85
2024-03-02T05:16:51.010Z,68.77
2024-03-02T05:19:17.741Z,69.21
2024-03-02T05:21:44.990Z,69.05
2024-03-02T05:24:11.818Z,68.77
2024-03-02T05:26:38.599Z,68.82
2024-03-02T05:29:05.345Z,69.02
2024-03-02T05:31:32.131Z,68.63
2024-03-02T05:33:58.975Z,68.64
2024-03-02T05:36:26.091Z,68.45
2024-03-02T05:38:53.584Z,68.85
2024-03-02T05:41:20.298Z,68.68
2024-03-02T05:43:47.025Z,68.78
2024-03-02T05:46:13.886Z,68.62
2024-03-02T05:48:40.640Z,68.79
2024-03-02T05:51:07.524Z,68.74
2024-03-02T05:53:34.982Z,68.49
2024-03-02T05:56:04.328Z,68.55
2024-03-02T05:58:44.269Z,68.88
2024-03-02T06:01:11.157Z,68.94
2024-03-02T06:03:38.085Z,68.94
2024-03-02T06:06:05.347Z,69.10
2024-03-02T06:08:32.236Z,68.98
2024-03-02T06:10:59.445Z,68.88
2024-03-02T06:13:27.711Z,69.23
2024-03-02T06:15:54.692Z,69.22
2024-03-02T06:18:21.547Z,69.40
2024-03-02T06:20:48.275Z,69.45
2024-03-02T06:23:15.146Z,69.45
2024-03-02T06:25:41.843Z,69.62
2024-03-02T06:28:08.673Z,69.45
2024-03-02T06:30:35.600Z,69.56
2024-03-02T06:33:02.526Z,69.60
2024-03-02T06:35:29.281Z,69.77
2024-03-02T06:37:56.070Z,69.81
2024-03-02T06:40:23.308Z,69.85
2024-03-02T06:42:50.302Z,70.19
2024-03-02T06:45:17.147Z,69.98
2024-03-02T06:47:44.053Z,69.71
2024-03-02T06:50:11.174Z,69.78
2024-03-02T06:52:38.020Z,69.73
2024-03-02T06:55:05.451Z,69.82
2024-03-02T06:57:32.312Z,70.00
2024-03-02T07:00:00.168Z,69.72
2024-03-02T07:02:28.082Z,70.16
2024-03-02T07:04:55.420Z,69.98
2024-03-02T07:07:22.161Z,70.10
2024-03-02T07:09:49.532Z,70.16
2024-03-02T07:12:16.502Z,69.96
2024-03-02T07:15:02.473Z,69.80
2024-03-02T07:17:29.504Z,69.60
2024-03-02T07:19:56.305Z,69.58
2024-03-02T07:22:24.104Z,69.68
2024-03-02T07:24:51.458Z,69.46
2024-03-02T07:27:19.046Z,69.44
2024-03-02T07:29:45.984Z,68.84
2024-03-02T07:32:12.819Z,68.99
2024-03-02T07:34:39.501Z,68.69
2024-03-02T07:37:07.239Z,68.30
2024-03-02T07:39:34.779Z,68.46
2024-03-02T07:42:01.794Z,68.73
2024-03-02T07:44:28.709Z,68.28
2024-03-02T07:46:55.476Z,68.34
2024-03-02T07:49:22.379Z,68.51
2024-03-02T07:51:49.211Z,68.19
2024-03-02T07:54:16.164Z,68.49
2024-03-02T07:56:42.951Z,68.65
2024-03-02T07:59:10.038Z,68.64
2024-03-02T08:01:37.184Z,68.73
2024-03-02T08:04:05.371Z,68.66
2024-03-02T08:06:32.421Z,69.07
2024-03-02T08:09:00.887Z,69.21
2024-03-02T08:11:28.566Z,69.03
2024-03-02T08:13:56.281Z,69.36
2024-03-02T08:16:24.620Z,69.79
2024-03-02T08:18:52.623Z,70.16
2024-03-02T08:21:19.779Z,70.37
2024-03-02T08:23:47.089Z,70.12
2024-03-02T08:26:14.041Z,70.32
2024-03-02T08:28:41.777Z,70.77
2024-03-02T08:31:09.108Z,71.12
2024-03-02T08:33:38.658Z,71.22
2024-03-02T08:36:06.816Z,71.67
2024-03-02T08:38:34.073Z,71.54
2024-03-02T08:41:01.039Z,72.23
2024-03-02T08:43:28.016Z,72.27
2024-03-02T08:45:54.889Z,72.02
2024-03-02T08:48:22.332Z,72.26
2024-03-02T08:50:49.340Z,72.55
2024-03-02T08:53:19.766Z,72.67
2024-03-02T08:55:47.630Z,72.47
2024-03-02T08:58:14.582Z,72.63
2024-03-02T09:00:42.046Z,72.82
2024-03-02T09:03:09.174Z,72.72
2024-03-02T09:05:35.961Z,72.60
2024-03-02T09:08:04.976Z,72.89
2024-03-02T09:10:32.260Z,72.93
2024-03-02T09:12:59.791Z,73.16
2024-03-02T09:15:26.786Z,73.15
2024-03-02T09:17:53.879Z,72.98
2024-03-02T09:20:20.707Z,72.83
2024-03-02T09:22:48.899Z,73.04
2024-03-02T09:25:17.466Z,72.76
2024-03-02T09:27:44.633Z,72.82
2024-03-02T09:30:12.051Z,72.88
2024-03-02T09:32:39.049Z,72.66
2024-03-02T09:35:06.504Z,73.09
2024-03-02T09:37:33.287Z,73.29
2024-03-02T09:40:00.540Z,73.41
2024-03-02T09:42:27.674Z,73.56
2024-03-02T09:44:54.662Z,73.37
2024-03-02T09:47:21.447Z,72.88
2024-03-02T09:49:48.728Z,72.66
2024-03-02T09:52:16.402Z,73.01
2024-03-02T09:54:43.162Z,73.33
2024-03-02T09:57:10.835Z,73.19
2024-03-02T09:59:37.706Z,73.05
2024-03-02T10:02:05.187Z,73.32
2024-03-02T10:04:37.139Z,73.55
2024-03-02T10:07:17.060Z,73.08
2024-03-02T10:09:48.434Z,73.29
2024-03-02T10:12:17.219Z,72.97
2024-03-02T10:14:45.000Z,72.80
2024-03-02T10:17:17.003Z,72.99
2024-03-02T10:19:43.797Z,73.17
2024-03-02T10:22:11.930Z,73.33
2024-03-02T10:24:46.741Z,73.26
2024-03-02T10:27:24.647Z,73.18
2024-03-02T10:29:51.533Z,72.78
2024-03-02T10:32:18.440Z,72.78
2024-03-02T10:34:49.180Z,72.77
2024-03-02T10:37:16.474Z,72.86
2024-03-02T10:39:44.214Z,72.84
2024-03-02T10:42:11.223Z,72.56
2024-03-02T10:44:38.368Z,72.74
2024-03-02T10:47:06.803Z,72.67
2024-03-02T10:49:34.635Z,72.52
2024-03-02T10:52:02.285Z,72.54
2024-03-02T10:54:37.234Z,72.34
2024-03-02T10:57:07.093Z,71.20
2024-03-02T10:59:40.251Z,71.26
2024-03-02T11:02:10.226Z,71.38
2024-03-02T11:04:38.502Z,71.60
2024-03-02T11:07:13.520Z,71.33
2024-03-02T11:09:46.181Z,70.99
2024-03-02T11:12:39.879Z,70.79
2024-03-02T11:15:13.110Z,70.89
2024-03-02T11:17:41.914Z,70.70
2024-03-02T11:20:10.283Z,70.73
2024-03-02T11:22:38.056Z,70.68
2024-03-02T11:25:05.264Z,70.66
2024-03-02T11:27:47.681Z,70.57
2024-03-02T11:30:36.005Z,70.57
2024-03-02T11:33:12.574Z,70.78
2024-03-02T11:35:44.707Z,70.78
2024-03-02T11:38:12.088Z,70.91
2024-03-02T11:40:41.090Z,71.11
2024-03-02T11:43:11.968Z,71.35
2024-03-02T11:45:44.403Z,71.63
2024-03-02T11:48:15.330Z,72.13
2024-03-02T11:50:48.604Z,72.18
2024-03-02T11:53:15.638Z,72.42
2024-03-02T11:55:47.610Z,72.51
2024-03-02T11:58:15.702Z,72.63
2024-03-02T12:00:42.684Z,72.91
2024-03-02T12:03:13.277Z,73.07
2024-03-02T12:05:40.759Z,72.99
2024-03-02T12:08:08.969Z,73.15
2024-03-02T12:10:37.538Z,73.44
2024-03-02T12:13:07.799Z,73.23
2024-03-02T12:15:40.566Z,73.47
2024-03-02T12:18:07.878Z,73.79
2024-03-02T12:20:35.361Z,73.86
2024-03-02T12:23:05.287Z,73.94
2024-03-02T12:25:34.652Z,74.08
2024-03-02T12:28:03.843Z,74.01
2024-03-02T12:30:32.556Z,73.67
2024-03-02T12:32:59.589Z,73.81
2024-03-02T12:35:26.894Z,73.59
2024-03-02T12:37:55.279Z,73.74
2024-03-02T12:40:24.312Z,73.46
2024-03-02T12:42:52.830Z,73.33
2024-03-02T12:45:25.814Z,73.28
2024-03-02T12:47:53.709Z,72.95
2024-03-02T12:50:22.025Z,73.00
2024-03-02T12:52:56.310Z,73.00
2024-03-02T12:55:24.613Z,73.00
2024-03-02T12:57:53.409Z,72.86
2024-03-02T13:00:22.401Z,72.74
2024-03-02T13:02:50.914Z,72.93
2024-03-02T13:05:17.988Z,72.81
2024-03-02T13:07:46.334Z,73.12
2024-03-02T13:10:13.725Z,72.86
2024-03-02T13:12:40.987Z,73.09
2024-03-02T13:15:07.964Z,72.82
2024-03-02T13:17:38.960Z,72.94
2024-03-02T13:20:12.216Z,72.81
2024-03-02T13:22:39.564Z,72.78
2024-03-02T13:25:07.767Z,72.82
2024-03-02T13:27:35.241Z,72.79
2024-03-02T13:30:04.201Z,72.59
2024-03-02T13:32:32.619Z,72.82
2024-03-02T13:34:59.536Z,72.64
2024-03-02T13:37:26.397Z,72.52
2024-03-02T13:39:53.289Z,72.59
2024-03-02T13:42:20.142Z,72.21
2024-03-02T13:44:49.436Z,72.34
2024-03-02T13:47:16.637Z,72.32
2024-03-02T13:49:48.291Z,72.20
2024-03-02T13:52:17.780Z,72.14
2024-03-02T13:54:46.348Z,71.90
2024-03-02T13:57:13.513Z,71.60
2024-03-02T13:59:41.964Z,71.37
2024-03-02T14:02:10.267Z,71.35
2024-03-02T14:04:40.156Z,71.03
2024-03-02T14:07:10.321Z,70.89
2024-03-02T14:09:37.811Z,70.62
2024-03-02T14:12:06.889Z,70.35
2024-03-02T14:14:34.216Z,69.89
2024-03-02T14:17:04.960Z,69.68
2024-03-02T14:19:32.561Z,69.62
2024-03-02T14:22:00.336Z,69.43
2024-03-02T14:24:45.959Z,69.36
2024-03-02T14:27:25.170Z,69.15
2024-03-02T14:29:59.827Z,69.33
2024-03-02T14:32:26.469Z,69.45
2024-03-02T14:34:53.260Z,69.47
2024-03-02T14:37:20.388Z,69.47
2024-03-02T14:39:47.306Z,69.65
2024-03-02T14:42:14.218Z,69.47
2024-03-02T14:44:41.062Z,69.57
2024-03-02T14:47:08.675Z,69.59
2024-03-02T14:49:38.028Z,69.77
2024-03-02T14:52:05.801Z,69.94
2024-03-02T14:54:33.861Z,70.18
2024-03-02T14:57:00.782Z,70.24
2024-03-02T14:59:29.312Z,70.21
2024-03-02T15:01:56.125Z,70.49
2024-03-02T15:04:23.200Z,70.22
2024-03-02T15:06:49.991Z,69.87
2024-03-02T15:09:19.726Z,69.82
2024-03-02T15:11:47.455Z,69.95
2024-03-02T15:14:14.801Z,70.07
2024-03-02T15:16:43.221Z,70.07
2024-03-02T15:19:10.158Z,69.56
2024-03-02T15:21:37.071Z,69.59
2024-03-02T15:24:04.261Z,69.48
2024-03-02T15:26:31.021Z,69.31
2024-03-02T15:29:00.329Z,69.41
2024-03-02T15:31:27.495Z,69.54
2024-03-02T15:33:56.975Z,69.69
2024-03-02T15:36:24.589Z,69.82
2024-03-02T15:38:51.608Z,69.88
2024-03-02T15:41:18.483Z,69.77
2024-03-02T15:43:45.327Z,69.69
2024-03-02T15:46:12.212Z,69.73
2024-03-02T15:48:39.167Z,69.56
2024-03-02T15:51:06.976Z,69.57
2024-03-02T15:53:34.094Z,69.71
2024-03-02T15:56:00.800Z,69.57
2024-03-02T15:58:27.684Z,69.67
2024-03-02T16:00:54.973Z,69.65
2024-03-02T16:03:21.874Z,69.66
2024-03-02T16:05:48.542Z,69.68
2024-03-02T16:08:15.318Z,69.70
2024-03-02T16:10:42.087Z,69.88
2024-03-02T16:13:08.893Z,70.13
2024-03-02T16:15:35.678Z,70.10
2024-03-02T16:18:03.189Z,70.10
2024-03-02T16:20:30.149Z,70.29
2024-03-02T16:22:57.051Z,70.34
2024-03-02T16:25:26.089Z,70.36
2024-03-02T16:27:53.395Z,70.85
2024-03-02T16:30:21.289Z,70.50
2024-03-02T16:32:48.966Z,70.93
2024-03-02T16:35:16.577Z,71.18
2024-03-02T16:37:43.832Z,71.17
2024-03-02T16:40:11.635Z,71.23
2024-03-02T16:42:38.547Z,71.33
2024-03-02T16:45:05.942Z,71.23
2024-03-02T16:47:32.929Z,71.25
2024-03-02T16:50:00.781Z,71.13
2024-03-02T16:52:31.153Z,71.31
2024-03-02T16:54:59.605Z,71.49
2024-03-02T16:57:29.830Z,71.59
2024-03-02T16:59:56.630Z,71.50
2024-03-02T17:02:26.572Z,71.56
2024-03-02T17:04:54.587Z,71.62
2024-03-02T17:07:21.765Z,71.80
2024-03-02T17:09:48.678Z,71.75
2024-03-02T17:12:15.418Z,71.67
2024-03-02T17:14:42.146Z,71.68
2024-03-02T17:17:08.921Z,71.68
2024-03-02T17:19:35.689Z,71.95
2024-03-02T17:22:02.534Z,71.82
2024-03-02T17:24:29.385Z,71.86
2024-03-02T17:26:58.640Z,71.97
2024-03-02T17:29:25.905Z,72.21
2024-03-02T17:31:52.734Z,72.32
2024-03-02T17:34:19.701Z,72.40
2024-03-02T17:36:46.423Z,72.75
2024-03-02T17:39:13.341Z,72.80
2024-03-02T17:41:40.170Z,72.87
2024-03-02T17:44:07.281Z,72.99
2024-03-02T17:46:34.010Z,73.04
2024-03-02T17:49:01.104Z,73.24
2024-03-02T17:51:28.031Z,73.28
2024-03-02T17:53:54.879Z,73.46
2024-03-02T17:56:21.656Z,73.65
2024-03-02T17:58:49.384Z,73.79
2024-03-02T18:01:16.685Z,73.62
2024-03-02T18:03:43.653Z,73.71
2024-03-02T18:06:10.461Z,74.08
2024-03-02T18:08:39.343Z,73.95
2024-03-02T18:11:07.943Z,74.13
2024-03-02T18:13:35.207Z,74.21
2024-03-02T18:16:05.954Z,74.46
2024-03-02T18:18:33.003Z,74.52
2024-03-02T18:20:59.976Z,74.52
2024-03-02T18:23:26.901Z,74.19
2024-03-02T18:25:53.667Z,74.08
2024-03-02T18:28:20.486Z,74.12
2024-03-02T18:30:47.483Z,74.44
2024-03-02T18:33:14.383Z,74.63
2024-03-02T18:35:41.199Z,74.89
2024-03-02T18:38:07.885Z,75.55
2024-03-02T18:40:34.734Z,76.06
2024-03-02T18:43:03.471Z,75.94
2024-03-02T18:45:30.646Z,76.16
2024-03-02T18:47:58.276Z,75.93
2024-03-02T18:50:26.521Z,76.04
2024-03-02T18:52:53.877Z,76.07
2024-03-02T18:55:20.760Z,76.77
2024-03-02T18:57:48.118Z,76.95
2024-03-02T19:00:15.288Z,76.87
2024-03-02T19:02:42.975Z,77.44
2024-03-02T19:05:10.844Z,77.01
2024-03-02T19:07:38.237Z,77.18
2024-03-02T19:10:05.999Z,76.83
2024-03-02T19:12:33.990Z,77.01
2024-03-02T19:15:02.269Z,77.15
2024-03-02T19:17:29.872Z,77.56
2024-03-02T19:19:57.298Z,78.08
2024-03-02T19:22:25.632Z,78.09
2024-03-02T19:24:52.601Z,78.47
2024-03-02T19:27:19.370Z,78.13
2024-03-02T19:29:46.203Z,78.43
2024-03-02T19:32:15.454Z,78.08
2024-03-02T19:34:47.925Z,78.19
2024-03-02T19:37:14.932Z,78.57
2024-03-02T19:39:43.823Z,78.52
2024-03-02T19:42:10.846Z,78.56
2024-03-02T19:44:37.720Z,78.18
2024-03-02T19:47:04.633Z,78.60
2024-03-02T19:49:31.570Z,78.34
2024-03-02T19:51:58.661Z,78.15
2024-03-02T19:54:25.372Z,77.90
2024-03-02T19:56:55.677Z,77.68
2024-03-02T19:59:23.159Z,77.88
2024-03-02T20:01:50.636Z,77.76
2024-03-02T20:04:17.840Z,77.58
2024-03-02T20:06:44.753Z,77.59
2024-03-02T20:09:12.771Z,77.72
2024-03-02T20:11:39.887Z,78.01
2024-03-02T20:14:06.868Z,78.05
2024-03-02T20:16:33.734Z,78.22
2024-03-02T20:19:00.663Z,78.46
2024-03-02T20:21:27.546Z,78.35
2024-03-02T20:23:54.340Z,78.36
2024-03-02T20:26:22.541Z,78.36
2024-03-02T20:28:53.358Z,78.42
2024-03-02T20:31:23.740Z,78.68
2024-03-02T20:33:50.593Z,78.70
2024-03-02T20:36:17.482Z,78.41
2024-03-02T20:38:44.252Z,78.64
2024-03-02T20:41:18.644Z,78.91
2024-03-02T20:43:46.443Z,78.86
2024-03-02T20:46:14.236Z,78.67
2024-03-02T20:48:42.011Z,78.62
2024-03-02T20:51:09.507Z,78.90
2024-03-02T20:53:36.397Z,78.72
2024-03-02T20:56:03.301Z,78.97
2024-03-02T20:58:30.348Z,78.86
2024-03-02T21:00:57.228Z,78.40
2024-03-02T21:03:23.971Z,78.39
2024-03-02T21:05:50.826Z,78.61
2024-03-02T21:08:17.537Z,78.49
2024-03-02T21:10:46.301Z,78.50
2024-03-02T21:13:14.680Z,78.72
2024-03-02T21:15:41.866Z,78.87
2024-03-02T21:18:08.665Z,78.61
2024-03-02T21:20:35.442Z,78.77
2024-03-02T21:23:02.356Z,78.59
2024-03-02T21:25:34.964Z,78.64
2024-03-02T21:28:02.567Z,78.97
2024-03-02T21:30:31.775Z,78.87
2024-03-02T21:32:59.018Z,78.92
2024-03-02T21:35:28.284Z,79.19
2024-03-02T21:37:55.563Z,79.21
2024-03-02T21:40:22.412Z,79.43
2024-03-02T21:42:49.907Z,79.20
2024-03-02T21:45:18.812Z,79.52
2024-03-02T21:47:45.811Z,78.96
2024-03-02T21:50:12.941Z,78.95
2024-03-02T21:52:39.693Z,79.11
2024-03-02T21:55:07.022Z,79.21
2024-03-02T21:57:33.967Z,79.12
2024-03-02T22:00:00.838Z,79.65
2024-03-02T22:02:27.704Z,78.99
2024-03-02T22:04:54.503Z,79.21
2024-03-02T22:07:21.271Z,79.06
2024-03-02T22:09:48.178Z,79.25
2024-03-02T22:12:15.002Z,79.35
2024-03-02T22:14:41.763Z,79.47
2024-03-02T22:17:08.592Z,79.53
2024-03-02T22:19:35.524Z,79.25
2024-03-02T22:22:02.348Z,79.17
2024-03-02T22:24:29.343Z,79.23
2024-03-02T22:26:57.160Z,79.22
2024-03-02T22:29:23.986Z,79.15
2024-03-02T22:31:50.800Z,79.11
2024-03-02T22:34:17.779Z,79.40
2024-03-02T22:36:44.727Z,79.16
2024-03-02T22:39:11.498Z,79.03
2024-03-02T22:41:38.294Z,78.97
2024-03-02T22:44:05.302Z,78.99
2024-03-02T22:46:32.044Z,78.71
2024-03-02T22:48:58.828Z,79.19
2024-03-02T22:51:27.844Z,79.25
2024-03-02T22:53:54.630Z,79.14
2024-03-02T22:56:22.049Z,79.46
2024-03-02T22:58:48.883Z,79.65
2024-03-02T23:01:15.854Z,79.46
2024-03-02T23:03:43.212Z,79.07
2024-03-02T23:06:10.183Z,79.32
2024-03-02T23:08:40.500Z,79.73
2024-03-02T23:11:07.835Z,79.68
2024-03-02T23:13:35.014Z,79.15
2024-03-02T23:16:01.830Z,79.49
2024-03-02T23:18:28.731Z,79.33
2024-03-02T23:20:55.640Z,79.55
2024-03-02T23:23:22.537Z,79.17
2024-03-02T23:25:49.676Z,79.44
2024-03-02T23:28:17.178Z,79.48
2024-03-02T23:30:44.596Z,79.40
2024-03-02T23:33:12.525Z,79.37
2024-03-02T23:35:39.425Z,79.25
2024-03-02T23:38:06.754Z,79.31
2024-03-02T23:40:39.412Z,79.35
2024-03-02T23:43:06.291Z,79.65
2024-03-02T23:45:33.101Z,79.37
2024-03-02T23:48:00.022Z,79.39
2024-03-02T23:50:26.894Z,79.34
2024-03-02T23:52:53.754Z,79.44
2024-03-02T23:55:21.941Z,79.56
2024-03-02T23:57:49.648Z,79.67
